Time;durP1;ratioP1;P1;durP2;ratioP2;P2;SDS_P1;SDS_P2;PMS_P1;PMS_P2;Temp;Humidity;BMP_temperature;BMP_pressure;BME280_temperature;BME280_humidity;BME280_pressure;Samples;Min_cycle;Max_cycle;Signal;HPM_P1;HPM_P2
2023/04/27 00:01:15;;;;;;;3.75;2.22;;;3.30;99.90;;;;;;4942201;28;20047;-85
2023/04/27 00:03:42;;;;;;;6.70;2.47;;;3.30;99.90;;;;;;4973819;28;20066;-84
2023/04/27 00:06:08;;;;;;;7.20;3.17;;;3.20;99.90;;;;;;4934802;28;20043;-84
2023/04/27 00:08:34;;;;;;;7.63;2.85;;;3.10;99.90;;;;;;4971386;28;20041;-84
2023/04/27 00:11:00;;;;;;;3.92;2.53;;;3.00;99.90;;;;;;4950327;28;20566;-84
2023/04/27 00:13:27;;;;;;;8.65;3.13;;;2.90;99.90;;;;;;4939002;28;20038;-84
2023/04/27 00:15:53;;;;;;;5.38;2.50;;;2.80;99.90;;;;;;4973132;28;20045;-84
2023/04/27 00:18:19;;;;;;;5.45;2.42;;;2.60;99.90;;;;;;4960695;28;20039;-83
2023/04/27 00:20:45;;;;;;;5.93;2.67;;;2.50;99.90;;;;;;4942196;28;20050;-83
2023/04/27 00:23:12;;;;;;;6.85;2.47;;;2.30;99.90;;;;;;4979688;28;20034;-84
2023/04/27 00:25:38;;;;;;;6.35;2.75;;;2.20;99.90;;;;;;4949295;28;20427;-84
2023/04/27 00:28:04;;;;;;;8.25;2.90;;;2.20;1.00;;;;;;4978193;28;20035;-85
2023/04/27 00:30:30;;;;;;;6.05;2.80;;;2.40;1.00;;;;;;4979507;28;20039;-84
2023/04/27 00:32:56;;;;;;;7.53;3.65;;;2.60;1.00;;;;;;4967004;28;20046;-86
2023/04/27 00:35:23;;;;;;;6.25;3.13;;;2.70;1.00;;;;;;4979226;28;20031;-84
2023/04/27 00:37:49;;;;;;;6.47;2.90;;;2.80;99.90;;;;;;4964711;28;20091;-84
2023/04/27 00:40:15;;;;;;;5.55;2.55;;;2.70;99.90;;;;;;4977897;28;20061;-83
2023/04/27 00:42:41;;;;;;;4.55;2.55;;;2.50;99.90;;;;;;4978715;28;20039;-83
2023/04/27 00:45:09;;;;;;;8.55;3.45;;;2.40;99.90;;;;;;4965396;28;20046;-84
2023/04/27 00:47:35;;;;;;;4.35;2.90;;;2.50;99.90;;;;;;4965034;28;20391;-83
2023/04/27 00:50:02;;;;;;;9.10;3.53;;;2.60;99.90;;;;;;4968567;28;20046;-83
2023/04/27 00:52:30;;;;;;;7.15;4.20;;;2.60;99.90;;;;;;4957202;28;20061;-84
2023/04/27 00:54:57;;;;;;;3.85;2.60;;;2.60;99.90;;;;;;4959208;28;20515;-83
2023/04/27 00:57:23;;;;;;;4.40;3.10;;;2.60;99.90;;;;;;4963789;28;20050;-83
2023/04/27 00:59:49;;;;;;;5.80;2.58;;;2.50;99.90;;;;;;4963110;28;20056;-83
2023/04/27 01:02:16;;;;;;;4.03;2.35;;;2.40;1.00;;;;;;4968887;28;20039;-83
2023/04/27 01:04:42;;;;;;;5.78;2.88;;;2.40;1.00;;;;;;4946391;28;20050;-83
2023/04/27 01:07:08;;;;;;;4.35;2.25;;;2.30;1.00;;;;;;4970114;28;20046;-84
2023/04/27 01:09:34;;;;;;;3.83;2.50;;;2.30;1.00;;;;;;4953121;28;20054;-84
2023/04/27 01:12:02;;;;;;;5.43;2.63;;;2.20;1.00;;;;;;4952239;28;20043;-84
2023/04/27 01:14:28;;;;;;;6.22;3.33;;;2.10;1.00;;;;;;4970776;28;20495;-84
2023/04/27 01:16:57;;;;;;;6.00;2.88;;;2.10;1.00;;;;;;4967098;28;20047;-83
2023/04/27 01:19:23;;;;;;;7.15;2.78;;;2.10;1.00;;;;;;4963116;28;20452;-83
2023/04/27 01:21:49;;;;;;;6.75;3.15;;;2.10;1.00;;;;;;4969192;28;20364;-83
2023/04/27 01:24:16;;;;;;;4.78;2.60;;;2.10;1.00;;;;;;4965028;28;20047;-84
2023/04/27 01:26:42;;;;;;;4.60;2.95;;;2.00;1.00;;;;;;4966819;28;20038;-83
2023/04/27 01:29:09;;;;;;;4.68;2.30;;;2.00;1.00;;;;;;4951418;28;20046;-83
2023/04/27 01:31:35;;;;;;;6.20;3.03;;;2.00;1.00;;;;;;4967940;28;20049;-84
2023/04/27 01:34:02;;;;;;;6.18;3.30;;;1.90;1.00;;;;;;4961142;28;20063;-84
2023/04/27 01:36:28;;;;;;;5.45;3.03;;;1.90;1.00;;;;;;4956333;28;20047;-83
2023/04/27 01:38:55;;;;;;;6.22;3.15;;;1.90;1.00;;;;;;4979217;28;20043;-84
2023/04/27 01:41:22;;;;;;;7.30;4.15;;;1.90;1.00;;;;;;4958504;28;20042;-83
2023/04/27 01:43:48;;;;;;;5.80;3.58;;;1.80;1.00;;;;;;4961626;28;20050;-83
2023/04/27 01:46:15;;;;;;;6.18;3.47;;;1.60;1.00;;;;;;4975508;28;20038;-83
2023/04/27 01:48:41;;;;;;;5.07;2.70;;;1.70;1.00;;;;;;4975661;28;20034;-83
2023/04/27 01:51:07;;;;;;;5.30;2.65;;;1.70;1.00;;;;;;4960617;28;20043;-84
2023/04/27 01:53:33;;;;;;;5.88;3.15;;;1.70;1.00;;;;;;4961211;28;20388;-84
2023/04/27 01:56:00;;;;;;;7.13;2.95;;;1.70;1.00;;;;;;4958517;28;20043;-86
2023/04/27 01:58:27;;;;;;;7.50;2.60;;;1.60;1.00;;;;;;4971507;28;20043;-83
2023/04/27 02:00:53;;;;;;;4.65;2.85;;;1.40;1.00;;;;;;4975095;28;20055;-83
2023/04/27 02:03:19;;;;;;;5.07;2.70;;;1.30;1.00;;;;;;4977240;28;20046;-84
2023/04/27 02:05:46;;;;;;;6.45;3.10;;;1.40;1.00;;;;;;4975999;28;20039;-84
2023/04/27 02:08:13;;;;;;;4.93;3.00;;;1.50;1.00;;;;;;4964729;28;20046;-84
2023/04/27 02:10:42;;;;;;;6.53;2.70;;;1.40;1.00;;;;;;4974094;28;20050;-83
2023/04/27 02:13:08;;;;;;;10.73;3.20;;;1.40;1.00;;;;;;4959276;28;20039;-84
2023/04/27 02:15:35;;;;;;;7.38;3.55;;;1.40;1.00;;;;;;4968836;28;20042;-83
2023/04/27 02:18:02;;;;;;;6.88;3.85;;;1.50;1.00;;;;;;4963229;28;20484;-84
2023/04/27 02:20:30;;;;;;;6.40;3.42;;;1.50;1.00;;;;;;4977231;28;20047;-83
2023/04/27 02:22:56;;;;;;;4.68;3.22;;;1.50;1.00;;;;;;4975706;28;20054;-83
2023/04/27 02:25:25;;;;;;;5.90;3.13;;;1.50;1.00;;;;;;4973026;28;20054;-83
2023/04/27 03:23:13;;;;;;;6.63;3.60;;;2.50;1.00;;;;;;4980048;28;20055;-84
2023/04/27 03:25:39;;;;;;;5.57;3.95;;;2.60;1.00;;;;;;4969018;28;20035;-85
2023/04/27 03:28:07;;;;;;;6.82;3.58;;;2.70;1.00;;;;;;4948329;28;20411;-84
2023/04/27 03:30:33;;;;;;;6.45;3.83;;;2.80;1.00;;;;;;4963641;28;20042;-84
2023/04/27 03:33:00;;;;;;;7.07;4.10;;;2.90;1.00;;;;;;4966010;28;20486;-84
2023/04/27 03:35:26;;;;;;;6.40;3.97;;;3.00;1.00;;;;;;4974596;28;20415;-84
2023/04/27 03:37:52;;;;;;;7.63;4.22;;;3.10;1.00;;;;;;4954839;28;20038;-84
2023/04/27 03:40:20;;;;;;;7.03;3.85;;;3.20;1.00;;;;;;4942944;28;20058;-83
2023/04/27 03:42:46;;;;;;;5.97;3.78;;;3.30;1.00;;;;;;4962368;28;20045;-83
2023/04/27 03:45:15;;;;;;;5.03;3.88;;;3.40;1.00;;;;;;4963419;28;20468;-82
2023/04/27 03:47:41;;;;;;;9.88;3.83;;;3.40;1.00;;;;;;4973875;28;20033;-82
2023/04/27 03:50:08;;;;;;;7.13;4.47;;;3.40;1.00;;;;;;4963480;28;20045;-84
2023/04/27 03:52:34;;;;;;;8.98;4.68;;;3.60;1.00;;;;;;4978672;28;20026;-83
2023/04/27 03:55:00;;;;;;;7.28;4.55;;;3.70;1.00;;;;;;4957191;28;20050;-83
2023/04/27 03:57:26;;;;;;;6.63;4.72;;;3.70;1.00;;;;;;4938674;28;20054;-84
2023/04/27 03:59:53;;;;;;;10.50;4.55;;;3.70;99.90;;;;;;4951592;28;20490;-83
2023/04/27 04:02:20;;;;;;;6.70;4.25;;;3.80;99.90;;;;;;4958781;28;20047;-83
2023/04/27 04:04:47;;;;;;;7.82;4.55;;;3.80;99.90;;;;;;4962330;28;20043;-82
2023/04/27 04:07:13;;;;;;;10.30;5.60;;;3.80;99.90;;;;;;4974840;28;20050;-82
2023/04/27 04:09:39;;;;;;;14.73;5.78;;;3.80;99.90;;;;;;4976595;28;20051;-82
2023/04/27 04:12:05;;;;;;;9.60;4.85;;;3.90;99.90;;;;;;4979811;28;20054;-82
2023/04/27 04:14:32;;;;;;;8.40;4.68;;;3.80;99.90;;;;;;4980400;28;20047;-82
2023/04/27 04:16:58;;;;;;;13.00;4.72;;;3.80;99.90;;;;;;4977560;28;20058;-79
2023/04/27 04:19:24;;;;;;;7.25;4.60;;;3.80;1.00;;;;;;4977580;28;20682;-79
2023/04/27 04:21:51;;;;;;;8.10;4.72;;;3.90;99.90;;;;;;4977505;28;20495;-79
2023/04/27 04:24:18;;;;;;;12.07;5.07;;;3.90;99.90;;;;;;4978957;28;20039;-74
2023/04/27 04:26:46;;;;;;;6.63;4.53;;;3.90;99.90;;;;;;4986725;28;20053;-79
2023/04/27 04:29:12;;;;;;;8.60;4.40;;;3.90;99.90;;;;;;4984274;28;20051;-79
2023/04/27 04:31:38;;;;;;;6.82;3.90;;;4.00;99.90;;;;;;4979913;28;20376;-78
2023/04/27 04:34:05;;;;;;;7.65;4.18;;;4.00;99.90;;;;;;4982010;28;20472;-78
2023/04/27 04:36:31;;;;;;;7.95;4.88;;;4.00;99.90;;;;;;4980453;28;20042;-76
2023/04/27 04:38:58;;;;;;;9.93;4.15;;;4.10;99.90;;;;;;4977917;28;20033;-77
2023/04/27 04:41:25;;;;;;;11.10;5.13;;;4.10;99.90;;;;;;4980645;28;20235;-79
2023/04/27 04:43:51;;;;;;;10.00;5.70;;;4.20;99.90;;;;;;4980422;28;20046;-78
2023/04/27 04:46:18;;;;;;;10.00;4.28;;;4.30;99.90;;;;;;4979125;28;20038;-82
2023/04/27 04:48:45;;;;;;;7.80;4.70;;;4.40;99.90;;;;;;4976448;28;20050;-83
2023/04/27 04:51:11;;;;;;;8.27;4.47;;;4.50;99.90;;;;;;4960998;28;20038;-82
2023/04/27 04:53:37;;;;;;;10.30;6.57;;;4.50;99.90;;;;;;4981188;28;20054;-82
2023/04/27 04:56:08;;;;;;;10.43;5.68;;;4.60;99.90;;;;;;4975517;28;20054;-86
2023/04/27 04:58:35;;;;;;;7.95;5.60;;;4.70;99.90;;;;;;4971295;28;20047;-80
2023/04/27 05:01:03;;;;;;;13.98;5.70;;;4.70;99.90;;;;;;4979198;28;20070;-83
2023/04/27 05:03:29;;;;;;;9.60;5.60;;;4.80;99.90;;;;;;4973491;28;20055;-83
2023/04/27 05:05:55;;;;;;;8.95;5.57;;;4.80;99.90;;;;;;4964553;28;20047;-82
2023/04/27 05:08:21;;;;;;;9.40;5.20;;;4.90;99.90;;;;;;4976710;28;20041;-82
2023/04/27 05:10:51;;;;;;;11.98;5.63;;;5.00;99.90;;;;;;4966178;28;20054;-80
2023/04/27 05:13:18;;;;;;;6.72;4.75;;;5.10;99.90;;;;;;4961664;28;20031;-82
2023/04/27 05:15:44;;;;;;;8.70;5.45;;;5.10;99.90;;;;;;4963903;28;20031;-82
2023/04/27 05:18:10;;;;;;;9.02;5.63;;;5.20;99.90;;;;;;4963405;28;20403;-81
2023/04/27 05:20:37;;;;;;;8.88;4.85;;;5.30;99.90;;;;;;4970461;28;20038;-86
2023/04/27 05:23:04;;;;;;;9.48;4.72;;;5.40;99.90;;;;;;4966334;28;20140;-82
2023/04/27 05:25:31;;;;;;;11.43;5.10;;;5.40;99.90;;;;;;4963969;28;20395;-82
2023/04/27 05:27:57;;;;;;;10.05;4.72;;;5.40;99.90;;;;;;4959244;28;20365;-85
2023/04/27 05:30:23;;;;;;;15.57;5.10;;;5.50;99.90;;;;;;4953507;28;20065;-82
2023/04/27 05:32:50;;;;;;;9.80;5.30;;;5.70;99.90;;;;;;4981580;28;20042;-83
2023/04/27 05:35:16;;;;;;;11.00;5.13;;;5.80;99.90;;;;;;4974924;28;20048;-83
2023/04/27 05:37:42;;;;;;;14.70;5.65;;;5.80;99.90;;;;;;4977198;28;20501;-83
2023/04/27 05:40:09;;;;;;;8.02;5.03;;;5.90;99.90;;;;;;4982390;28;20026;-83
2023/04/27 05:42:35;;;;;;;9.93;5.63;;;6.00;99.90;;;;;;4961215;28;20034;-84
2023/04/27 05:45:03;;;;;;;10.77;5.18;;;6.10;99.90;;;;;;4976049;28;20027;-83
2023/04/27 05:47:29;;;;;;;11.05;5.68;;;6.20;99.90;;;;;;4959908;28;20046;-82
2023/04/27 05:49:58;;;;;;;11.02;5.45;;;6.30;99.90;;;;;;4980892;28;20045;-82
2023/04/27 05:52:29;;;;;;;10.02;5.05;;;6.40;99.90;;;;;;4975800;28;20461;-83
2023/04/27 05:54:57;;;;;;;9.82;4.93;;;6.50;99.90;;;;;;4976909;28;20058;-83
2023/04/27 05:57:24;;;;;;;8.82;5.63;;;6.60;99.90;;;;;;4960049;28;20046;-82
2023/04/27 05:59:50;;;;;;;9.73;4.90;;;6.70;99.90;;;;;;4977210;28;20034;-83
2023/04/27 06:02:18;;;;;;;7.22;5.32;;;6.80;99.90;;;;;;4956718;28;20485;-84
2023/04/27 06:04:45;;;;;;;9.85;5.28;;;6.90;99.90;;;;;;4978563;28;20047;-84
2023/04/27 06:07:13;;;;;;;8.27;4.82;;;7.00;99.90;;;;;;4978469;28;20049;-84
2023/04/27 06:09:40;;;;;;;10.07;5.97;;;7.00;91.50;;;;;;4976578;28;20038;-84
2023/04/27 06:12:07;;;;;;;13.98;5.03;;;7.10;92.80;;;;;;4976622;28;20387;-85
2023/04/27 06:14:34;;;;;;;8.63;5.43;;;7.00;74.90;;;;;;4979596;28;20073;-85
2023/04/27 06:17:01;;;;;;;13.25;4.80;;;7.00;74.40;;;;;;4975652;28;20034;-85
2023/04/27 06:19:27;;;;;;;7.20;5.45;;;7.00;80.70;;;;;;4980109;28;20027;-85
2023/04/27 06:21:54;;;;;;;7.95;5.00;;;7.10;64.00;;;;;;4962346;28;20484;-85
2023/04/27 06:24:21;;;;;;;12.55;5.60;;;7.30;59.50;;;;;;4962864;28;20031;-85
2023/04/27 06:26:48;;;;;;;11.07;5.32;;;7.40;44.40;;;;;;4977140;28;20039;-86
2023/04/27 06:29:15;;;;;;;6.47;4.68;;;7.70;40.30;;;;;;4950791;28;20056;-85
2023/04/27 06:31:41;;;;;;;10.82;4.25;;;7.80;16.60;;;;;;4977802;28;20043;-85
2023/04/27 06:34:07;;;;;;;7.28;4.53;;;7.80;19.00;;;;;;4966646;28;20045;-85
2023/04/27 06:36:33;;;;;;;9.13;3.75;;;7.90;23.00;;;;;;4968351;28;20042;-85
2023/04/27 06:38:59;;;;;;;9.90;5.15;;;7.90;15.50;;;;;;4981076;28;20030;-86
2023/04/27 06:41:26;;;;;;;11.05;5.05;;;7.90;13.10;;;;;;4960459;28;20070;-85
2023/04/27 06:43:52;;;;;;;8.30;4.00;;;8.10;5.60;;;;;;4968128;28;20042;-85
2023/04/27 06:46:19;;;;;;;8.35;4.82;;;8.20;2.80;;;;;;4968067;28;20058;-85
2023/04/27 06:48:45;;;;;;;8.75;4.50;;;8.40;1.00;;;;;;4960125;28;20031;-86
2023/04/27 06:51:12;;;;;;;9.10;4.50;;;8.20;1.00;;;;;;4968432;28;20054;-85
2023/04/27 06:53:38;;;;;;;9.68;4.93;;;7.90;1.00;;;;;;4966375;28;20042;-85
2023/04/27 06:56:11;;;;;;;8.68;4.43;;;8.00;1.00;;;;;;4954416;28;20050;-85
2023/04/27 06:58:37;;;;;;;8.15;5.13;;;8.10;1.00;;;;;;4961227;28;20046;-85
2023/04/27 07:01:04;;;;;;;11.70;4.90;;;8.30;1.30;;;;;;4974228;28;20568;-86
2023/04/27 07:03:33;;;;;;;9.18;4.57;;;8.70;1.10;;;;;;4953077;28;20035;-86
2023/04/27 07:05:59;;;;;;;11.50;5.22;;;8.80;1.00;;;;;;4963810;28;20391;-87
2023/04/27 07:08:27;;;;;;;8.45;5.22;;;8.80;1.00;;;;;;4963816;28;20392;-86
2023/04/27 07:10:54;;;;;;;9.35;5.28;;;9.00;1.00;;;;;;4979555;28;20039;-86
2023/04/27 07:13:21;;;;;;;7.15;4.43;;;9.50;1.00;;;;;;4960275;28;20039;-87
2023/04/27 07:15:47;;;;;;;8.35;4.18;;;10.20;1.00;;;;;;4962329;28;20041;-87
2023/04/27 07:18:13;;;;;;;7.53;4.18;;;10.70;1.00;;;;;;4967003;28;20034;-87
2023/04/27 07:20:41;;;;;;;8.85;3.85;;;10.00;1.00;;;;;;4960907;28;20039;-86
2023/04/27 07:23:07;;;;;;;7.30;4.97;;;10.20;1.00;;;;;;4983209;28;20045;-87
2023/04/27 07:25:34;;;;;;;8.07;4.05;;;10.60;1.00;;;;;;4981071;28;20038;-87
2023/04/27 07:28:00;;;;;;;10.20;4.65;;;10.60;1.00;;;;;;4971227;28;20042;-86
2023/04/27 07:30:29;;;;;;;12.43;4.75;;;10.70;1.00;;;;;;4966061;28;20133;-86
2023/04/27 07:32:56;;;;;;;7.32;3.20;;;10.80;1.00;;;;;;4960638;28;20464;-86
2023/04/27 07:35:22;;;;;;;16.83;4.35;;;10.50;1.00;;;;;;4976224;28;20039;-86
2023/04/27 07:37:48;;;;;;;7.32;3.72;;;10.90;1.00;;;;;;4976540;28;20364;-86
2023/04/27 07:40:17;;;;;;;11.23;6.47;;;11.40;1.00;;;;;;4950243;28;20049;-87
2023/04/27 07:42:45;;;;;;;9.82;8.65;;;12.20;1.00;;;;;;4963436;28;20050;-86
2023/04/27 07:45:11;;;;;;;7.35;3.70;;;12.60;1.00;;;;;;4981992;28;20035;-86
2023/04/27 07:47:37;;;;;;;6.63;3.55;;;11.80;1.00;;;;;;4959617;28;20066;-85
2023/04/27 07:50:06;;;;;;;6.80;3.28;;;11.50;1.00;;;;;;4962240;28;20464;-85
2023/04/27 07:52:32;;;;;;;6.78;4.07;;;11.90;1.00;;;;;;4982757;28;20192;-86
2023/04/27 07:54:58;;;;;;;10.27;3.28;;;12.30;1.00;;;;;;4986112;28;20031;-87
2023/04/27 07:57:25;;;;;;;5.00;3.03;;;12.20;1.00;;;;;;4979191;28;20038;-85
2023/04/27 07:59:51;;;;;;;9.20;4.90;;;12.30;1.00;;;;;;4982234;28;20065;-85
2023/04/27 08:02:18;;;;;;;7.45;3.38;;;13.80;1.00;;;;;;4948763;28;20055;-86
2023/04/27 08:04:44;;;;;;;6.05;3.55;;;13.10;1.00;;;;;;4979369;28;20058;-85
2023/04/27 08:07:10;;;;;;;7.28;3.33;;;13.70;1.00;;;;;;4988328;28;20387;-85
2023/04/27 08:09:36;;;;;;;8.93;3.40;;;14.40;1.00;;;;;;4979255;28;20049;-85
2023/04/27 08:12:03;;;;;;;5.80;2.80;;;14.30;1.00;;;;;;4953856;28;20039;-85
2023/04/27 08:14:29;;;;;;;4.88;2.00;;;13.30;1.00;;;;;;4976875;28;20038;-87
2023/04/27 08:16:55;;;;;;;9.82;3.45;;;12.70;1.00;;;;;;4973490;28;20036;-83
2023/04/27 08:19:24;;;;;;;6.50;2.58;;;13.50;1.00;;;;;;4975690;28;20039;-84
2023/04/27 08:21:50;;;;;;;6.40;2.30;;;15.00;1.00;;;;;;4970285;28;20046;-84
2023/04/27 08:24:16;;;;;;;4.43;2.30;;;15.80;1.00;;;;;;4974175;28;20042;-84
2023/04/27 08:26:42;;;;;;;4.65;2.17;;;14.60;1.00;;;;;;4975088;28;20038;-85
2023/04/27 08:29:08;;;;;;;5.32;2.70;;;15.10;1.00;;;;;;4974986;28;20050;-84
2023/04/27 08:31:35;;;;;;;6.63;2.15;;;16.40;1.00;;;;;;4956862;28;20051;-85
2023/04/27 08:34:01;;;;;;;7.25;2.38;;;18.20;1.00;;;;;;4967313;28;20043;-90
2023/04/27 08:36:27;;;;;;;5.45;2.22;;;18.90;1.00;;;;;;4959245;28;20045;-84
2023/04/27 08:38:54;;;;;;;8.18;2.22;;;18.40;1.00;;;;;;4972833;28;20055;-86
2023/04/27 08:41:22;;;;;;;10.02;2.80;;;18.30;1.00;;;;;;4979333;28;20038;-85
2023/04/27 08:43:49;;;;;;;4.22;1.65;;;17.90;1.00;;;;;;4967073;28;20039;-85
2023/04/27 08:46:25;;;;;;;7.32;2.38;;;17.00;1.00;;;;;;4962358;28;20038;-85
2023/04/27 08:48:55;;;;;;;5.78;2.05;;;16.60;1.00;;;;;;4975266;28;20058;-86
2023/04/27 08:51:24;;;;;;;5.95;2.53;;;17.80;1.00;;;;;;4977821;28;20058;-85
2023/04/27 08:53:52;;;;;;;6.13;2.65;;;17.10;1.00;;;;;;4980501;28;20042;-85
2023/04/27 08:56:22;;;;;;;6.60;2.53;;;18.10;1.00;;;;;;4957462;28;20400;-84
2023/04/27 08:58:48;;;;;;;9.32;3.30;;;19.20;99.90;;;;;;4978234;28;20408;-86
2023/04/27 09:01:15;;;;;;;4.82;2.35;;;17.80;1.00;;;;;;4959810;28;20051;-90
2023/04/27 09:03:41;;;;;;;7.18;2.78;;;16.40;1.00;;;;;;4980090;28;20034;-87
2023/04/27 09:06:07;;;;;;;11.73;3.65;;;16.60;1.00;;;;;;4986978;28;20038;-86
2023/04/27 09:08:50;;;;;;;6.18;2.60;;;16.90;1.00;;;;;;4962537;28;20043;-86
2023/04/27 09:11:32;;;;;;;4.93;2.40;;;17.90;1.00;;;;;;4966781;28;20047;-87
2023/04/27 09:14:00;;;;;;;4.45;3.10;;;17.60;1.00;;;;;;4961350;28;20507;-89
2023/04/27 09:16:28;;;;;;;6.03;2.97;;;16.70;1.00;;;;;;4954190;28;20392;-88
2023/04/27 09:18:58;;;;;;;5.95;2.90;;;15.90;1.00;;;;;;4964643;28;20039;-86
2023/04/27 09:21:26;;;;;;;5.82;3.25;;;16.00;1.00;;;;;;4964558;28;20127;-88
2023/04/27 09:23:53;;;;;;;6.13;2.83;;;16.90;1.00;;;;;;4964784;28;20035;-89
2023/04/27 09:26:21;;;;;;;4.43;2.58;;;17.10;1.00;;;;;;4963166;28;20035;-85
2023/04/27 09:28:50;;;;;;;7.45;3.33;;;16.40;1.00;;;;;;4963077;28;20396;-87
2023/04/27 09:31:17;;;;;;;8.65;2.88;;;17.20;1.00;;;;;;4944806;28;20066;-91
2023/04/27 09:33:44;;;;;;;4.60;2.28;;;16.80;1.00;;;;;;4966182;28;20029;-89
2023/04/27 09:36:11;;;;;;;9.20;3.38;;;16.00;1.00;;;;;;4976323;28;20418;-88
2023/04/27 09:38:37;;;;;;;10.32;5.13;;;16.60;1.00;;;;;;4965253;28;20054;-86
2023/04/27 09:41:03;;;;;;;4.75;2.95;;;17.40;1.00;;;;;;4971758;28;20464;-88
2023/04/27 09:43:30;;;;;;;6.68;3.72;;;16.10;1.00;;;;;;4965233;28;20093;-89
2023/04/27 09:45:57;;;;;;;7.18;3.40;;;15.70;1.00;;;;;;4959038;28;20039;-88
2023/04/27 09:48:25;;;;;;;6.03;3.40;;;16.20;1.00;;;;;;4963477;28;20451;-91
2023/04/27 09:50:52;;;;;;;8.13;4.32;;;16.40;1.00;;;;;;4960706;28;20038;-89
2023/04/27 09:53:24;;;;;;;5.30;2.85;;;16.30;1.00;;;;;;4960170;28;20047;-91
2023/04/27 09:56:21;;;;;;;5.20;3.10;;;16.40;1.00;;;;;;4963229;28;20039;-88
2023/04/27 09:59:12;;;;;;;5.60;3.03;;;16.30;1.00;;;;;;4976464;28;20042;-88
2023/04/27 10:01:41;;;;;;;;;;;15.80;1.00;;;;;;4978180;28;20042;-86
2023/04/27 10:04:26;;;;;;;7.20;3.28;;;16.10;1.00;;;;;;4991338;28;19925;-89
2023/04/27 10:07:04;;;;;;;9.23;3.30;;;15.80;1.00;;;;;;4960538;28;20058;-87
2023/04/27 10:09:45;;;;;;;7.03;2.88;;;16.20;1.00;;;;;;4977433;28;20039;-87
2023/04/27 10:12:32;;;;;;;5.28;3.10;;;17.10;1.00;;;;;;4960242;28;20057;-88
2023/04/27 10:15:00;;;;;;;8.68;3.95;;;17.90;1.00;;;;;;4956068;28;20041;-89
2023/04/27 10:17:34;;;;;;;6.57;3.17;;;17.60;1.00;;;;;;4960731;28;20034;-88
2023/04/27 10:20:06;;;;;;;8.43;3.28;;;16.80;1.00;;;;;;4960396;28;20047;-88
2023/04/27 10:22:40;;;;;;;8.85;3.20;;;16.60;1.00;;;;;;4964901;28;20471;-92
2023/04/27 10:25:22;;;;;;;5.60;2.88;;;16.70;1.00;;;;;;4975519;28;20464;-89
2023/04/27 10:28:01;;;;;;;3.92;2.45;;;16.80;1.00;;;;;;4964638;28;20034;-88
2023/04/27 10:30:35;;;;;;;8.30;3.17;;;16.60;1.00;;;;;;4940163;28;20047;-90
2023/04/27 10:33:09;;;;;;;8.70;2.78;;;16.40;1.00;;;;;;4979684;28;20045;-91
2023/04/27 10:35:41;;;;;;;5.53;2.30;;;17.10;1.00;;;;;;4964034;28;20065;-89
2023/04/27 10:38:08;;;;;;;7.82;3.38;;;17.50;1.00;;;;;;4969845;28;20035;-91
2023/04/27 10:40:35;;;;;;;8.57;3.17;;;17.60;99.90;;;;;;4969961;28;20037;-94
2023/04/27 10:43:15;;;;;;;5.65;2.60;;;17.60;99.90;;;;;;4969773;28;20489;-90
2023/04/27 10:45:44;;;;;;;7.93;2.58;;;17.50;99.90;;;;;;4977667;28;20034;-90
2023/04/27 10:48:16;;;;;;;9.20;2.70;;;17.90;99.90;;;;;;4944637;28;20043;-89
2023/04/27 10:50:46;;;;;;;4.38;2.58;;;18.10;99.90;;;;;;4961176;28;20043;-89
2023/04/27 10:53:16;;;;;;;6.47;2.95;;;18.20;99.90;;;;;;4978684;28;20046;-82
2023/04/27 10:55:42;;;;;;;4.60;2.22;;;18.60;99.90;;;;;;4960299;28;20053;-86
2023/04/27 10:58:08;;;;;;;6.60;2.60;;;18.30;99.90;;;;;;4955292;28;20519;-85
2023/04/27 11:00:42;;;;;;;6.55;2.60;;;18.20;99.90;;;;;;4977578;28;20039;-83
2023/04/27 11:03:21;;;;;;;5.70;2.65;;;18.20;99.90;;;;;;4976104;28;20050;-80
2023/04/27 11:05:49;;;;;;;6.38;2.50;;;18.30;99.90;;;;;;4993511;28;20049;-76
2023/04/27 11:08:17;;;;;;;6.45;3.13;;;18.40;99.90;;;;;;4995301;28;20046;-79
2023/04/27 11:10:49;;;;;;;5.95;2.53;;;17.10;99.90;;;;;;4995135;28;20027;-80
2023/04/27 11:13:27;;;;;;;9.25;2.95;;;17.00;99.90;;;;;;4980878;28;20034;-80
2023/04/27 11:15:58;;;;;;;6.30;3.22;;;16.80;99.90;;;;;;4972771;28;20046;-81
2023/04/27 11:18:26;;;;;;;7.50;2.92;;;16.70;99.90;;;;;;4982047;28;20045;-81
2023/04/27 11:21:10;;;;;;;4.30;2.60;;;16.60;99.90;;;;;;4981840;28;20038;-80
2023/04/27 11:23:37;;;;;;;7.57;3.17;;;16.50;99.90;;;;;;4993287;28;20044;-79
2023/04/27 11:26:10;;;;;;;8.85;3.22;;;16.30;99.90;;;;;;4993804;28;20023;-78
2023/04/27 11:28:37;;;;;;;7.03;3.70;;;16.40;99.90;;;;;;4997898;28;20038;-79
2023/04/27 11:31:03;;;;;;;6.93;3.25;;;17.20;99.90;;;;;;4993650;28;20042;-79
2023/04/27 11:33:30;;;;;;;7.38;3.40;;;17.70;99.90;;;;;;4982338;28;20046;-79
2023/04/27 11:35:56;;;;;;;9.98;3.97;;;18.10;99.90;;;;;;4995670;28;20038;-79
2023/04/27 11:38:23;;;;;;;9.43;3.45;;;18.20;99.90;;;;;;4986741;28;20053;-79
2023/04/27 11:41:00;;;;;;;7.35;3.28;;;18.60;99.90;;;;;;4995631;28;20027;-79
2023/04/27 11:43:27;;;;;;;8.55;4.07;;;18.90;99.90;;;;;;4993176;28;20395;-81
2023/04/27 11:45:55;;;;;;;7.40;4.25;;;19.00;99.90;;;;;;4998799;28;20038;-80
2023/04/27 11:48:25;;;;;;;10.00;4.32;;;18.80;99.90;;;;;;4994824;28;20035;-78
2023/04/27 11:50:52;;;;;;;14.13;4.95;;;18.70;99.90;;;;;;4973059;28;20046;-79
2023/04/27 11:53:38;;;;;;;7.43;3.28;;;18.60;99.90;;;;;;4997568;28;20034;-80
2023/04/27 11:56:09;;;;;;;4.95;2.95;;;18.20;99.90;;;;;;4991137;28;20034;-82
2023/04/27 11:58:37;;;;;;;7.90;4.07;;;18.20;99.90;;;;;;4995666;28;20044;-79
2023/04/27 12:01:04;;;;;;;8.32;4.07;;;18.20;99.90;;;;;;4997807;28;20046;-80
2023/04/27 12:03:30;;;;;;;6.22;3.22;;;18.20;99.90;;;;;;4990925;28;20034;-81
2023/04/27 12:05:57;;;;;;;8.45;4.38;;;18.60;99.90;;;;;;4976574;28;20099;-79
2023/04/27 12:08:23;;;;;;;6.10;3.00;;;18.40;99.90;;;;;;4980445;28;20035;-85
2023/04/27 12:10:50;;;;;;;8.43;4.25;;;18.50;99.90;;;;;;4976032;28;20088;-79
2023/04/27 12:13:16;;;;;;;6.60;2.67;;;19.10;99.90;;;;;;4958362;28;20050;-81
2023/04/27 12:15:42;;;;;;;6.70;3.58;;;19.30;99.90;;;;;;4971694;28;20042;-80
2023/04/27 12:18:09;;;;;;;4.45;2.90;;;18.70;99.90;;;;;;4975108;28;20038;-81
2023/04/27 12:20:36;;;;;;;4.20;2.35;;;18.50;99.90;;;;;;4963801;28;20039;-79
2023/04/27 12:23:02;;;;;;;8.43;3.53;;;18.00;99.90;;;;;;4964730;28;20049;-80
2023/04/27 12:25:29;;;;;;;6.15;2.80;;;18.00;99.90;;;;;;4975482;28;20457;-79
2023/04/27 12:27:55;;;;;;;9.10;3.20;;;17.90;99.90;;;;;;4968235;28;20030;-80
2023/04/27 12:30:22;;;;;;;6.00;2.63;;;18.20;99.90;;;;;;4977290;28;20050;-79
2023/04/27 12:32:48;;;;;;;13.70;3.42;;;18.70;99.90;;;;;;4980654;28;20064;-80
2023/04/27 12:35:15;;;;;;;7.93;4.05;;;18.60;99.90;;;;;;4959574;28;20038;-83
2023/04/27 12:37:41;;;;;;;6.03;3.28;;;18.00;99.90;;;;;;4977329;28;20396;-79
2023/04/27 12:40:08;;;;;;;10.60;3.75;;;17.90;99.90;;;;;;4980549;28;20034;-79
2023/04/27 12:42:34;;;;;;;7.75;3.15;;;18.40;99.90;;;;;;4977467;28;20460;-79
2023/04/27 12:45:01;;;;;;;6.80;3.08;;;18.90;99.90;;;;;;4965055;28;20042;-79
2023/04/27 12:47:27;;;;;;;10.80;3.88;;;19.20;99.90;;;;;;4978191;28;20027;-79
2023/04/27 12:49:53;;;;;;;5.57;2.45;;;19.60;99.90;;;;;;4981886;28;20050;-79
2023/04/27 12:52:19;;;;;;;7.95;3.88;;;19.20;99.90;;;;;;4965437;28;20058;-85
2023/04/27 12:54:46;;;;;;;8.98;3.60;;;18.60;99.90;;;;;;4981291;28;20042;-79
2023/04/27 12:57:12;;;;;;;5.60;2.67;;;18.40;99.90;;;;;;4978769;28;20217;-80
2023/04/27 12:59:38;;;;;;;7.35;2.72;;;18.50;99.90;;;;;;4981937;28;20039;-80
2023/04/27 13:02:07;;;;;;;5.90;1.85;;;18.90;99.90;;;;;;4983975;28;20045;-79
2023/04/27 13:04:33;;;;;;;8.88;2.58;;;18.90;99.90;;;;;;4980644;28;20501;-81
2023/04/27 13:06:59;;;;;;;6.07;2.72;;;19.30;99.90;;;;;;4975952;28;20401;-80
2023/04/27 13:09:29;;;;;;;7.35;3.58;;;18.90;99.90;;;;;;4976085;28;20034;-90
2023/04/27 13:11:56;;;;;;;5.72;3.53;;;18.40;99.90;;;;;;4962982;28;20042;-80
2023/04/27 13:14:23;;;;;;;3.80;2.47;;;18.80;99.90;;;;;;4964235;28;20043;-82
2023/04/27 13:16:50;;;;;;;7.80;2.78;;;19.30;99.90;;;;;;4976284;28;20031;-80
2023/04/27 13:19:16;;;;;;;7.28;2.72;;;19.10;99.90;;;;;;4982845;28;20491;-79
2023/04/27 13:21:42;;;;;;;5.20;3.33;;;19.10;99.90;;;;;;4975604;28;20042;-80
2023/04/27 13:24:08;;;;;;;6.75;3.70;;;19.10;99.90;;;;;;4977087;28;20038;-82
2023/04/27 13:26:35;;;;;;;7.32;2.47;;;19.10;99.90;;;;;;4986353;28;20030;-83
2023/04/27 13:29:03;;;;;;;6.88;3.15;;;19.20;99.90;;;;;;4965965;28;20042;-81
2023/04/27 13:31:31;;;;;;;8.48;4.35;;;19.00;99.90;;;;;;4974130;28;20031;-85
2023/04/27 13:33:57;;;;;;;10.23;3.67;;;18.90;99.90;;;;;;4958440;28;20103;-79
2023/04/27 13:36:23;;;;;;;7.32;3.75;;;18.60;99.90;;;;;;4980562;28;20037;-79
2023/04/27 13:38:50;;;;;;;8.55;3.75;;;18.90;99.90;;;;;;4975235;28;20486;-80
2023/04/27 13:41:17;;;;;;;6.40;4.15;;;19.00;99.90;;;;;;4965167;28;20034;-79
2023/04/27 13:43:43;;;;;;;7.00;3.42;;;19.30;99.90;;;;;;4979464;28;20058;-79
2023/04/27 13:46:10;;;;;;;8.10;3.03;;;19.40;99.90;;;;;;4978141;28;20027;-79
2023/04/27 13:48:36;;;;;;;7.75;3.08;;;19.10;99.90;;;;;;4977676;28;20046;-79
2023/04/27 13:51:02;;;;;;;16.08;4.18;;;19.20;99.90;;;;;;4978337;28;20050;-79
2023/04/27 13:53:28;;;;;;;9.23;3.60;;;19.10;99.90;;;;;;4979761;28;20031;-79